sensor_id;sensor_type;location;lat;lon;timestamp;pressure;altitude;pressure_sealevel;temperature;humidity
56241;BME280;42155;53.096;23.226;2022-11-20T00:01:09;100049.19;;;-4.61;70.71
56241;BME280;42155;53.096;23.226;2022-11-20T00:03:09;100050.03;;;-4.60;70.46
56241;BME280;42155;53.096;23.226;2022-11-20T00:05:10;100062.09;;;-4.57;70.48
56241;BME280;42155;53.096;23.226;2022-11-20T00:07:10;100054.41;;;-4.64;70.60
56241;BME280;42155;53.096;23.226;2022-11-20T00:09:10;100047.56;;;-4.68;70.48
56241;BME280;42155;53.096;23.226;2022-11-20T00:11:16;100039.03;;;-4.73;70.60
56241;BME280;42155;53.096;23.226;2022-11-20T00:13:17;100047.66;;;-4.71;70.76
56241;BME280;42155;53.096;23.226;2022-11-20T00:15:17;100055.34;;;-4.68;70.49
56241;BME280;42155;53.096;23.226;2022-11-20T00:17:17;100047.66;;;-4.71;70.62
56241;BME280;42155;53.096;23.226;2022-11-20T00:19:18;100049.38;;;-4.71;70.55
56241;BME280;42155;53.096;23.226;2022-11-20T00:21:23;100016.03;;;-4.90;70.44
56241;BME280;42155;53.096;23.226;2022-11-20T00:23:24;100046.81;;;-4.73;70.58
56241;BME280;42155;53.096;23.226;2022-11-20T00:25:24;100027.94;;;-4.81;70.49
56241;BME280;42155;53.096;23.226;2022-11-20T00:27:24;100029.69;;;-4.80;70.59
56241;BME280;42155;53.096;23.226;2022-11-20T00:29:25;100046.81;;;-4.71;70.47
56241;BME280;42155;53.096;23.226;2022-11-20T00:31:26;100051.97;;;-4.73;70.42
56241;BME280;42155;53.096;23.226;2022-11-20T00:33:27;100037.44;;;-4.80;70.80
56241;BME280;42155;53.096;23.226;2022-11-20T00:35:27;100050.31;;;-4.77;70.34
56241;BME280;42155;53.096;23.226;2022-11-20T00:37:28;100049.53;;;-4.82;70.47
56241;BME280;42155;53.096;23.226;2022-11-20T00:39:28;100046.16;;;-4.86;70.72
56241;BME280;42155;53.096;23.226;2022-11-20T00:41:29;100054.72;;;-4.82;70.49
56241;BME280;42155;53.096;23.226;2022-11-20T00:43:30;100046.19;;;-4.87;70.46
56241;BME280;42155;53.096;23.226;2022-11-20T00:45:30;100049.66;;;-4.88;70.83
56241;BME280;42155;53.096;23.226;2022-11-20T00:47:30;100042.00;;;-4.94;70.43
56241;BME280;42155;53.096;23.226;2022-11-20T00:49:30;100039.44;;;-4.97;71.22
56241;BME280;42155;53.096;23.226;2022-11-20T00:51:31;100047.13;;;-4.93;70.87
56241;BME280;42155;53.096;23.226;2022-11-20T00:53:31;100048.00;;;-4.92;70.89
56241;BME280;42155;53.096;23.226;2022-11-20T00:55:32;100042.81;;;-4.92;70.57
56241;BME280;42155;53.096;23.226;2022-11-20T00:57:32;100034.38;;;-5.03;70.67
56241;BME280;42155;53.096;23.226;2022-11-20T00:59:32;100041.13;;;-4.95;70.65
56241;BME280;42155;53.096;23.226;2022-11-20T01:01:33;100035.94;;;-4.95;70.57
56241;BME280;42155;53.096;23.226;2022-11-20T01:03:35;100038.53;;;-4.95;70.41
56241;BME280;42155;53.096;23.226;2022-11-20T01:05:35;100046.31;;;-4.96;70.84
56241;BME280;42155;53.096;23.226;2022-11-20T01:07:36;100042.06;;;-5.00;70.63
56241;BME280;42155;53.096;23.226;2022-11-20T01:09:36;100032.66;;;-5.04;70.67
56241;BME280;42155;53.096;23.226;2022-11-20T01:11:39;100043.75;;;-4.96;71.19
56241;BME280;42155;53.096;23.226;2022-11-20T01:13:40;100043.72;;;-4.95;70.76
56241;BME280;42155;53.096;23.226;2022-11-20T01:15:40;100024.03;;;-5.03;70.48
56241;BME280;42155;53.096;23.226;2022-11-20T01:17:41;100019.66;;;-5.01;70.58
56241;BME280;42155;53.096;23.226;2022-11-20T01:19:41;100029.91;;;-4.94;70.89
56241;BME280;42155;53.096;23.226;2022-11-20T01:21:43;100008.44;;;-5.00;70.76
56241;BME280;42155;53.096;23.226;2022-11-20T01:23:44;100007.50;;;-4.96;70.85
56241;BME280;42155;53.096;23.226;2022-11-20T01:25:45;100007.47;;;-4.95;70.87
56241;BME280;42155;53.096;23.226;2022-11-20T01:27:45;100006.63;;;-4.95;71.23
56241;BME280;42155;53.096;23.226;2022-11-20T01:29:45;100011.75;;;-4.92;70.77
56241;BME280;42155;53.096;23.226;2022-11-20T01:31:46;100010.06;;;-4.93;70.55
56241;BME280;42155;53.096;23.226;2022-11-20T01:33:48;100009.22;;;-4.95;70.90
56241;BME280;42155;53.096;23.226;2022-11-20T01:35:49;100008.44;;;-4.99;71.02
56241;BME280;42155;53.096;23.226;2022-11-20T01:37:50;99976.75;;;-5.15;71.06
56241;BME280;42155;53.096;23.226;2022-11-20T01:39:50;100004.16;;;-5.01;70.64
56241;BME280;42155;53.096;23.226;2022-11-20T01:41:52;100012.69;;;-4.96;70.97
56241;BME280;42155;53.096;23.226;2022-11-20T01:43:53;100009.22;;;-4.95;70.86
56241;BME280;42155;53.096;23.226;2022-11-20T01:48:04;100009.16;;;-4.92;70.66
56241;BME280;42155;53.096;23.226;2022-11-20T01:50:05;100015.22;;;-4.93;71.10
56241;BME280;42155;53.096;23.226;2022-11-20T01:52:20;100006.63;;;-4.95;70.78
56241;BME280;42155;53.096;23.226;2022-11-20T01:54:38;100012.59;;;-4.92;70.49
56241;BME280;42155;53.096;23.226;2022-11-20T01:56:43;100013.50;;;-4.93;70.36
56241;BME280;42155;53.096;23.226;2022-11-20T01:58:48;100004.88;;;-4.93;70.19
56241;BME280;42155;53.096;23.226;2022-11-20T02:00:51;100015.19;;;-4.92;70.53
56241;BME280;42155;53.096;23.226;2022-11-20T02:02:54;100014.34;;;-4.92;70.55
56241;BME280;42155;53.096;23.226;2022-11-20T02:05:02;99996.50;;;-5.07;70.62
56241;BME280;42155;53.096;23.226;2022-11-20T02:07:05;100021.31;;;-4.96;70.80
56241;BME280;42155;53.096;23.226;2022-11-20T02:09:05;100015.28;;;-4.96;70.92
56241;BME280;42155;53.096;23.226;2022-11-20T02:11:06;99978.41;;;-5.10;70.96
56241;BME280;42155;53.096;23.226;2022-11-20T02:13:07;99978.47;;;-5.14;70.58
56241;BME280;42155;53.096;23.226;2022-11-20T02:15:08;100001.66;;;-5.07;70.68
56241;BME280;42155;53.096;23.226;2022-11-20T02:17:09;99999.09;;;-5.07;70.91
56241;BME280;42155;53.096;23.226;2022-11-20T02:19:28;100004.19;;;-5.04;70.78
56241;BME280;42155;53.096;23.226;2022-11-20T02:21:35;100017.94;;;-5.01;70.81
56241;BME280;42155;53.096;23.226;2022-11-20T02:26:10;100010.19;;;-5.01;71.19
56241;BME280;42155;53.096;23.226;2022-11-20T02:28:12;100008.44;;;-5.00;70.85
56241;BME280;42155;53.096;23.226;2022-11-20T02:30:13;100004.19;;;-5.04;70.71
56241;BME280;42155;53.096;23.226;2022-11-20T02:32:20;99991.41;;;-5.14;70.98
56241;BME280;42155;53.096;23.226;2022-11-20T02:34:21;99998.25;;;-5.09;70.85
56241;BME280;42155;53.096;23.226;2022-11-20T02:36:22;99999.84;;;-5.02;70.80
56241;BME280;42155;53.096;23.226;2022-11-20T02:38:24;99916.97;;;-5.50;70.73
56241;BME280;42155;53.096;23.226;2022-11-20T02:40:25;99946.03;;;-5.33;70.93
56241;BME280;42155;53.096;23.226;2022-11-20T02:42:25;100007.47;;;-4.95;71.01
56241;BME280;42155;53.096;23.226;2022-11-20T02:44:25;100006.59;;;-4.92;71.16
56241;BME280;42155;53.096;23.226;2022-11-20T02:46:26;100005.78;;;-4.94;71.15
56241;BME280;42155;53.096;23.226;2022-11-20T02:48:26;100016.91;;;-4.89;71.24
56241;BME280;42155;53.096;23.226;2022-11-20T02:50:26;99999.72;;;-4.93;70.84
56241;BME280;42155;53.096;23.226;2022-11-20T02:52:27;100006.53;;;-4.89;71.34
56241;BME280;42155;53.096;23.226;2022-11-20T02:54:27;100002.22;;;-4.89;70.78
56241;BME280;42155;53.096;23.226;2022-11-20T02:56:27;100012.41;;;-4.79;70.79
56241;BME280;42155;53.096;23.226;2022-11-20T02:58:28;100009.06;;;-4.84;71.04
56241;BME280;42155;53.096;23.226;2022-11-20T03:00:28;100015.00;;;-4.81;70.76
56241;BME280;42155;53.096;23.226;2022-11-20T03:02:32;100003.06;;;-4.88;71.22
56241;BME280;42155;53.096;23.226;2022-11-20T03:04:32;100002.19;;;-4.87;70.82
56241;BME280;42155;53.096;23.226;2022-11-20T03:06:33;99996.06;;;-4.83;71.00
56241;BME280;42155;53.096;23.226;2022-11-20T03:08:33;99987.56;;;-4.91;70.80
56241;BME280;42155;53.096;23.226;2022-11-20T03:10:34;100002.09;;;-4.82;70.83
56241;BME280;42155;53.096;23.226;2022-11-20T03:12:34;99990.25;;;-4.94;70.73
56241;BME280;42155;53.096;23.226;2022-11-20T03:14:34;100009.03;;;-4.83;71.29
56241;BME280;42155;53.096;23.226;2022-11-20T03:16:35;99998.75;;;-4.88;71.18
56241;BME280;42155;53.096;23.226;2022-11-20T03:18:35;99965.44;;;-5.07;71.24
56241;BME280;42155;53.096;23.226;2022-11-20T03:20:35;100001.38;;;-4.89;71.10
56241;BME280;42155;53.096;23.226;2022-11-20T03:22:36;99997.03;;;-4.90;70.94
56241;BME280;42155;53.096;23.226;2022-11-20T03:24:36;100011.66;;;-4.86;71.60
56241;BME280;42155;53.096;23.226;2022-11-20T03:26:36;99999.59;;;-4.87;71.01
56241;BME280;42155;53.096;23.226;2022-11-20T03:28:38;100013.31;;;-4.82;70.83
56241;BME280;42155;53.096;23.226;2022-11-20T03:30:39;99994.56;;;-4.96;71.22
56241;BME280;42155;53.096;23.226;2022-11-20T03:32:39;99999.63;;;-4.90;70.94
56241;BME280;42155;53.096;23.226;2022-11-20T03:34:39;100008.28;;;-4.91;71.32
56241;BME280;42155;53.096;23.226;2022-11-20T03:36:41;100011.69;;;-4.88;71.53
56241;BME280;42155;53.096;23.226;2022-11-20T03:38:42;100004.00;;;-4.92;71.54
56241;BME280;42155;53.096;23.226;2022-11-20T03:40:42;100000.44;;;-4.85;71.14
56241;BME280;42155;53.096;23.226;2022-11-20T03:42:43;100003.88;;;-4.84;70.88
56241;BME280;42155;53.096;23.226;2022-11-20T03:44:43;100008.19;;;-4.85;71.42
56241;BME280;42155;53.096;23.226;2022-11-20T03:46:43;99966.44;;;-5.18;71.26
56241;BME280;42155;53.096;23.226;2022-11-20T03:48:44;99979.22;;;-5.07;71.87
56241;BME280;42155;53.096;23.226;2022-11-20T03:50:44;100002.28;;;-4.93;71.49
56241;BME280;42155;53.096;23.226;2022-11-20T03:52:44;100000.50;;;-4.90;71.39
56241;BME280;42155;53.096;23.226;2022-11-20T03:54:45;100001.38;;;-4.89;71.35
56241;BME280;42155;53.096;23.226;2022-11-20T03:56:45;99997.03;;;-4.90;71.32
56241;BME280;42155;53.096;23.226;2022-11-20T03:58:45;99997.84;;;-4.85;71.56
56241;BME280;42155;53.096;23.226;2022-11-20T04:00:46;100002.94;;;-4.82;71.12
56241;BME280;42155;53.096;23.226;2022-11-20T04:02:46;100006.38;;;-4.80;71.65
56241;BME280;42155;53.096;23.226;2022-11-20T04:04:46;99999.56;;;-4.84;71.56
56241;BME280;42155;53.096;23.226;2022-11-20T04:06:47;99996.88;;;-4.79;71.18
56241;BME280;42155;53.096;23.226;2022-11-20T04:08:47;99996.03;;;-4.80;71.46
56241;BME280;42155;53.096;23.226;2022-11-20T04:10:47;100016.66;;;-4.77;71.44
56241;BME280;42155;53.096;23.226;2022-11-20T04:12:48;100004.63;;;-4.78;71.49
56241;BME280;42155;53.096;23.226;2022-11-20T04:14:48;100009.66;;;-4.70;71.36
56241;BME280;42155;53.096;23.226;2022-11-20T04:16:48;100007.94;;;-4.70;71.03
56241;BME280;42155;53.096;23.226;2022-11-20T04:18:57;99999.28;;;-4.69;71.69
56241;BME280;42155;53.096;23.226;2022-11-20T04:20:58;99993.25;;;-4.69;71.16
56241;BME280;42155;53.096;23.226;2022-11-20T04:22:59;99993.16;;;-4.65;71.42
56241;BME280;42155;53.096;23.226;2022-11-20T04:24:59;99963.34;;;-4.87;71.50
56241;BME280;42155;53.096;23.226;2022-11-20T04:26:59;99969.97;;;-4.71;71.29
56241;BME280;42155;53.096;23.226;2022-11-20T04:29:00;99992.19;;;-4.57;71.33
56241;BME280;42155;53.096;23.226;2022-11-20T04:33:03;99980.84;;;-4.53;71.30
56241;BME280;42155;53.096;23.226;2022-11-20T04:35:04;99972.28;;;-4.55;71.25
56241;BME280;42155;53.096;23.226;2022-11-20T04:37:04;99973.97;;;-4.54;71.26
56241;BME280;42155;53.096;23.226;2022-11-20T04:39:06;99971.47;;;-4.57;71.45
56241;BME280;42155;53.096;23.226;2022-11-20T04:41:08;99969.72;;;-4.58;71.65
56241;BME280;42155;53.096;23.226;2022-11-20T04:43:11;99962.84;;;-4.59;71.53
56241;BME280;42155;53.096;23.226;2022-11-20T04:45:11;99965.34;;;-4.55;71.31
56241;BME280;42155;53.096;23.226;2022-11-20T04:47:11;99965.31;;;-4.52;71.09
56241;BME280;42155;53.096;23.226;2022-11-20T04:49:13;99963.53;;;-4.50;71.13
56241;BME280;42155;53.096;23.226;2022-11-20T04:51:14;99908.06;;;-4.83;71.59
56241;BME280;42155;53.096;23.226;2022-11-20T04:53:14;99952.31;;;-4.50;71.21
56241;BME280;42155;53.096;23.226;2022-11-20T04:55:15;99948.00;;;-4.50;71.57
56241;BME280;42155;53.096;23.226;2022-11-20T04:57:15;99955.75;;;-4.48;71.67
56241;BME280;42155;53.096;23.226;2022-11-20T04:59:16;99937.00;;;-4.61;71.56
56241;BME280;42155;53.096;23.226;2022-11-20T05:01:22;99955.75;;;-4.48;71.81
56241;BME280;42155;53.096;23.226;2022-11-20T05:03:22;99953.16;;;-4.48;71.66
56241;BME280;42155;53.096;23.226;2022-11-20T05:05:23;99952.31;;;-4.50;71.27
56241;BME280;42155;53.096;23.226;2022-11-20T05:07:23;99945.44;;;-4.51;71.63
56241;BME280;42155;53.096;23.226;2022-11-20T05:09:23;99936.84;;;-4.53;71.21
56241;BME280;42155;53.096;23.226;2022-11-20T05:11:24;99940.97;;;-4.45;71.38
56241;BME280;42155;53.096;23.226;2022-11-20T05:13:24;99943.63;;;-4.46;71.95
56241;BME280;42155;53.096;23.226;2022-11-20T05:15:25;99942.81;;;-4.50;71.23
56241;BME280;42155;53.096;23.226;2022-11-20T05:17:25;99937.63;;;-4.50;71.50
56241;BME280;42155;53.096;23.226;2022-11-20T05:19:26;99933.44;;;-4.55;71.66
56241;BME280;42155;53.096;23.226;2022-11-20T05:21:26;99939.50;;;-4.58;71.49
56241;BME280;42155;53.096;23.226;2022-11-20T05:23:30;99931.72;;;-4.56;71.73
56241;BME280;42155;53.096;23.226;2022-11-20T05:25:30;99938.66;;;-4.58;71.31
56241;BME280;42155;53.096;23.226;2022-11-20T05:27:31;99927.53;;;-4.62;71.61
56241;BME280;42155;53.096;23.226;2022-11-20T05:29:31;99926.59;;;-4.59;71.65
56241;BME280;42155;53.096;23.226;2022-11-20T05:31:31;99899.31;;;-4.76;71.64
56241;BME280;42155;53.096;23.226;2022-11-20T05:33:33;99923.31;;;-4.68;71.93
56241;BME280;42155;53.096;23.226;2022-11-20T05:35:33;99921.56;;;-4.66;71.63
56241;BME280;42155;53.096;23.226;2022-11-20T05:37:34;99915.63;;;-4.72;71.53
56241;BME280;42155;53.096;23.226;2022-11-20T05:39:34;99928.59;;;-4.74;71.90
56241;BME280;42155;53.096;23.226;2022-11-20T05:41:34;99926.09;;;-4.78;71.31
56241;BME280;42155;53.096;23.226;2022-11-20T05:43:36;99928.69;;;-4.78;71.77
56241;BME280;42155;53.096;23.226;2022-11-20T05:45:36;99897.97;;;-4.97;71.79
56241;BME280;42155;53.096;23.226;2022-11-20T05:47:36;99916.72;;;-4.84;71.77
56241;BME280;42155;53.096;23.226;2022-11-20T05:49:37;99925.34;;;-4.83;71.59
56241;BME280;42155;53.096;23.226;2022-11-20T05:51:37;99921.94;;;-4.87;71.66
56241;BME280;42155;53.096;23.226;2022-11-20T05:53:37;99905.00;;;-5.03;71.64
56241;BME280;42155;53.096;23.226;2022-11-20T05:55:38;99918.63;;;-4.95;72.26
56241;BME280;42155;53.096;23.226;2022-11-20T05:57:38;99925.53;;;-4.94;72.07
56241;BME280;42155;53.096;23.226;2022-11-20T05:59:38;99932.47;;;-4.96;71.93
56241;BME280;42155;53.096;23.226;2022-11-20T06:01:39;99910.19;;;-5.03;71.75
56241;BME280;42155;53.096;23.226;2022-11-20T06:03:40;99903.38;;;-5.10;71.84
56241;BME280;42155;53.096;23.226;2022-11-20T06:05:41;99905.09;;;-5.09;71.93
56241;BME280;42155;53.096;23.226;2022-11-20T06:07:41;99914.47;;;-5.04;72.24
56241;BME280;42155;53.096;23.226;2022-11-20T06:09:42;99916.19;;;-5.03;71.96
56241;BME280;42155;53.096;23.226;2022-11-20T06:11:42;99894.81;;;-5.13;71.87
56241;BME280;42155;53.096;23.226;2022-11-20T06:13:42;99928.22;;;-4.99;71.68
56241;BME280;42155;53.096;23.226;2022-11-20T06:15:49;99853.06;;;-5.42;71.80
56241;BME280;42155;53.096;23.226;2022-11-20T06:17:52;99917.06;;;-5.02;71.72
56241;BME280;42155;53.096;23.226;2022-11-20T06:19:53;99906.75;;;-5.05;71.73
56241;BME280;42155;53.096;23.226;2022-11-20T06:21:54;99903.38;;;-5.10;72.04
56241;BME280;42155;53.096;23.226;2022-11-20T06:23:54;99907.69;;;-5.09;71.67
56241;BME280;42155;53.096;23.226;2022-11-20T06:25:54;99907.69;;;-5.09;72.01
56241;BME280;42155;53.096;23.226;2022-11-20T06:27:55;99906.78;;;-5.08;71.84
56241;BME280;42155;53.096;23.226;2022-11-20T06:29:55;99898.31;;;-5.15;71.62
56241;BME280;42155;53.096;23.226;2022-11-20T06:31:55;99890.63;;;-5.20;71.88
56241;BME280;42155;53.096;23.226;2022-11-20T06:33:56;99901.63;;;-5.08;71.80
56241;BME280;42155;53.096;23.226;2022-11-20T06:35:58;99913.63;;;-5.04;71.54
56241;BME280;42155;53.096;23.226;2022-11-20T06:37:58;99908.44;;;-5.04;71.60
56241;BME280;42155;53.096;23.226;2022-11-20T06:39:58;99913.63;;;-5.04;71.77
56241;BME280;42155;53.096;23.226;2022-11-20T06:41:59;99910.19;;;-5.03;71.72
56241;BME280;42155;53.096;23.226;2022-11-20T06:43:59;99856.38;;;-5.34;71.07
56241;BME280;42155;53.096;23.226;2022-11-20T06:45:59;99899.84;;;-5.03;71.51
56241;BME280;42155;53.096;23.226;2022-11-20T06:48:00;99903.97;;;-4.95;71.56
56241;BME280;42155;53.096;23.226;2022-11-20T06:50:00;99904.75;;;-4.91;71.10
56241;BME280;42155;53.096;23.226;2022-11-20T06:52:01;99902.09;;;-4.87;70.93
56241;BME280;42155;53.096;23.226;2022-11-20T06:54:01;99901.06;;;-4.78;71.26
56241;BME280;42155;53.096;23.226;2022-11-20T06:56:02;99909.50;;;-4.67;71.34
56241;BME280;42155;53.096;23.226;2022-11-20T06:58:02;99910.97;;;-4.55;70.97
56241;BME280;42155;53.096;23.226;2022-11-20T07:00:03;99894.44;;;-4.49;70.54
56241;BME280;42155;53.096;23.226;2022-11-20T07:02:03;99907.03;;;-4.31;70.34
56241;BME280;42155;53.096;23.226;2022-11-20T07:04:03;99876.03;;;-4.34;70.39
56241;BME280;42155;53.096;23.226;2022-11-20T07:06:05;99892.13;;;-4.21;70.15
56241;BME280;42155;53.096;23.226;2022-11-20T07:08:05;99893.72;;;-4.14;70.62
56241;BME280;42155;53.096;23.226;2022-11-20T07:10:06;99903.91;;;-4.05;70.17
56241;BME280;42155;53.096;23.226;2022-11-20T07:12:07;99883.31;;;-4.11;70.00
56241;BME280;42155;53.096;23.226;2022-11-20T07:14:08;99897.72;;;-3.99;70.11
56241;BME280;42155;53.096;23.226;2022-11-20T07:16:08;99890.63;;;-3.91;70.10
56241;BME280;42155;53.096;23.226;2022-11-20T07:18:09;99890.34;;;-3.79;69.66
56241;BME280;42155;53.096;23.226;2022-11-20T07:20:09;99894.50;;;-3.72;69.56
56241;BME280;42155;53.096;23.226;2022-11-20T07:22:10;99887.41;;;-3.64;69.29
56241;BME280;42155;53.096;23.226;2022-11-20T07:24:10;99882.78;;;-3.52;69.33
56241;BME280;42155;53.096;23.226;2022-11-20T07:26:11;99890.41;;;-3.45;68.85
56241;BME280;42155;53.096;23.226;2022-11-20T07:28:11;99864.56;;;-3.49;68.85
56241;BME280;42155;53.096;23.226;2022-11-20T07:30:12;99871.16;;;-3.36;68.43
56241;BME280;42155;53.096;23.226;2022-11-20T07:32:12;99877.75;;;-3.23;68.25
56241;BME280;42155;53.096;23.226;2022-11-20T07:34:13;99876.84;;;-3.22;68.66
56241;BME280;42155;53.096;23.226;2022-11-20T07:36:13;99859.41;;;-3.17;68.46
56241;BME280;42155;53.096;23.226;2022-11-20T07:38:13;99875.34;;;-2.98;68.18
56241;BME280;42155;53.096;23.226;2022-11-20T07:40:15;99874.25;;;-2.89;68.40
56241;BME280;42155;53.096;23.226;2022-11-20T07:42:15;99868.88;;;-2.83;67.74
56241;BME280;42155;53.096;23.226;2022-11-20T07:44:15;99870.44;;;-2.77;68.16
56241;BME280;42155;53.096;23.226;2022-11-20T07:46:16;99866.22;;;-2.80;67.63
56241;BME280;42155;53.096;23.226;2022-11-20T07:48:16;99849.72;;;-2.79;68.22
56241;BME280;42155;53.096;23.226;2022-11-20T07:50:17;99868.38;;;-2.65;68.32
56241;BME280;42155;53.096;23.226;2022-11-20T07:52:18;99868.13;;;-2.56;67.55
56241;BME280;42155;53.096;23.226;2022-11-20T07:54:19;99868.75;;;-2.47;67.78
56241;BME280;42155;53.096;23.226;2022-11-20T07:56:20;99864.28;;;-2.42;67.33
56241;BME280;42155;53.096;23.226;2022-11-20T07:58:21;99864.31;;;-2.44;67.03
56241;BME280;42155;53.096;23.226;2022-11-20T08:00:21;99868.41;;;-2.35;67.48
56241;BME280;42155;53.096;23.226;2022-11-20T08:02:22;99870.91;;;-2.32;67.37
56241;BME280;42155;53.096;23.226;2022-11-20T08:04:22;99869.84;;;-2.25;67.12
56241;BME280;42155;53.096;23.226;2022-11-20T08:06:23;99866.34;;;-2.24;67.37
56241;BME280;42155;53.096;23.226;2022-11-20T08:08:23;99870.75;;;-2.26;67.15
56241;BME280;42155;53.096;23.226;2022-11-20T08:10:23;99867.13;;;-2.22;67.58
56241;BME280;42155;53.096;23.226;2022-11-20T08:12:24;99830.13;;;-2.30;67.16
56241;BME280;42155;53.096;23.226;2022-11-20T08:14:24;99863.59;;;-1.91;66.75
56241;BME280;42155;53.096;23.226;2022-11-20T08:16:24;99857.22;;;-1.81;66.86
56241;BME280;42155;53.096;23.226;2022-11-20T08:18:25;99859.38;;;-1.67;66.86
56241;BME280;42155;53.096;23.226;2022-11-20T08:20:25;99845.44;;;-1.65;66.49
56241;BME280;42155;53.096;23.226;2022-11-20T08:22:25;99856.38;;;-1.55;66.47
56241;BME280;42155;53.096;23.226;2022-11-20T08:24:26;99858.09;;;-1.54;66.42
56241;BME280;42155;53.096;23.226;2022-11-20T08:26:26;99847.53;;;-1.49;65.87
56241;BME280;42155;53.096;23.226;2022-11-20T08:28:26;99849.97;;;-1.45;66.27
56241;BME280;42155;53.096;23.226;2022-11-20T08:30:27;99847.44;;;-1.46;66.17
56241;BME280;42155;53.096;23.226;2022-11-20T08:32:28;99856.84;;;-1.42;65.97
56241;BME280;42155;53.096;23.226;2022-11-20T08:34:28;99861.78;;;-1.35;65.65
56241;BME280;42155;53.096;23.226;2022-11-20T08:36:28;99849.81;;;-1.40;65.71
56241;BME280;42155;53.096;23.226;2022-11-20T08:38:30;99845.53;;;-1.41;66.26
56241;BME280;42155;53.096;23.226;2022-11-20T08:40:31;99847.00;;;-1.34;66.30
56241;BME280;42155;53.096;23.226;2022-11-20T08:42:31;99833.81;;;-1.30;65.44
56241;BME280;42155;53.096;23.226;2022-11-20T08:44:32;99827.00;;;-1.32;65.79
56241;BME280;42155;53.096;23.226;2022-11-20T08:46:34;99834.50;;;-1.23;65.92
56241;BME280;42155;53.096;23.226;2022-11-20T08:48:35;99829.06;;;-1.17;65.47
56241;BME280;42155;53.096;23.226;2022-11-20T08:50:35;99828.13;;;-1.14;65.65
56241;BME280;42155;53.096;23.226;2022-11-20T08:52:36;99837.13;;;-0.99;65.24
56241;BME280;42155;53.096;23.226;2022-11-20T08:54:36;99838.75;;;-0.95;65.58
56241;BME280;42155;53.096;23.226;2022-11-20T08:56:37;99834.38;;;-0.95;65.08
56241;BME280;42155;53.096;23.226;2022-11-20T08:58:38;99831.00;;;-0.97;65.41
56241;BME280;42155;53.096;23.226;2022-11-20T09:00:38;99786.81;;;-1.25;65.25
56241;BME280;42155;53.096;23.226;2022-11-20T09:02:38;99817.41;;;-1.07;65.51
56241;BME280;42155;53.096;23.226;2022-11-20T09:04:39;99813.00;;;-1.05;65.32
56241;BME280;42155;53.096;23.226;2022-11-20T09:06:39;99822.19;;;-0.94;65.31
56241;BME280;42155;53.096;23.226;2022-11-20T09:08:40;99821.03;;;-0.86;65.43
56241;BME280;42155;53.096;23.226;2022-11-20T09:10:40;99799.91;;;-0.78;64.76
56241;BME280;42155;53.096;23.226;2022-11-20T09:12:40;99810.78;;;-0.67;64.62
56241;BME280;42155;53.096;23.226;2022-11-20T09:14:41;99809.75;;;-0.63;64.25
56241;BME280;42155;53.096;23.226;2022-11-20T09:16:41;99815.16;;;-0.67;64.78
56241;BME280;42155;53.096;23.226;2022-11-20T09:18:41;99820.69;;;-0.53;64.26
56241;BME280;42155;53.096;23.226;2022-11-20T09:20:42;99802.63;;;-0.58;64.12
56241;BME280;42155;53.096;23.226;2022-11-20T09:22:42;99803.47;;;-0.57;64.15
56241;BME280;42155;53.096;23.226;2022-11-20T09:24:42;99801.66;;;-0.55;63.75
56241;BME280;42155;53.096;23.226;2022-11-20T09:26:43;99814.22;;;-0.43;63.76
56241;BME280;42155;53.096;23.226;2022-11-20T09:28:43;99804.72;;;-0.44;63.44
56241;BME280;42155;53.096;23.226;2022-11-20T09:30:44;99812.47;;;-0.42;64.04
56241;BME280;42155;53.096;23.226;2022-11-20T09:32:44;99818.47;;;-0.40;63.37
56241;BME280;42155;53.096;23.226;2022-11-20T09:34:45;99808.09;;;-0.42;63.60
56241;BME280;42155;53.096;23.226;2022-11-20T09:36:45;99798.66;;;-0.44;63.56
56241;BME280;42155;53.096;23.226;2022-11-20T09:38:46;99811.22;;;-0.32;63.26
56241;BME280;42155;53.096;23.226;2022-11-20T09:40:54;99774.63;;;-0.53;63.35
56241;BME280;42155;53.096;23.226;2022-11-20T09:42:57;99805.09;;;-0.31;63.91
56241;BME280;42155;53.096;23.226;2022-11-20T09:55:55;99795.53;;;-0.09;62.63
56241;BME280;42155;53.096;23.226;2022-11-20T09:57:56;99772.28;;;-0.15;62.76
56241;BME280;42155;53.096;23.226;2022-11-20T10:00:00;99792.91;;;-0.09;62.92
56241;BME280;42155;53.096;23.226;2022-11-20T10:02:08;99797.16;;;-0.06;62.81
56241;BME280;42155;53.096;23.226;2022-11-20T10:04:20;99788.72;;;-0.13;62.09
56241;BME280;42155;53.096;23.226;2022-11-20T10:06:28;99771.63;;;-0.20;62.32
56241;BME280;42155;53.096;23.226;2022-11-20T10:08:40;99776.09;;;-0.23;61.98
56241;BME280;42155;53.096;23.226;2022-11-20T10:12:52;99763.69;;;-0.17;62.43
56241;BME280;42155;53.096;23.226;2022-11-20T10:15:18;99764.44;;;-0.15;61.54
56241;BME280;42155;53.096;23.226;2022-11-20T10:22:16;99699.22;;;-0.35;61.45
56241;BME280;42155;53.096;23.226;2022-11-20T10:27:09;99748.69;;;-0.12;62.16
56241;BME280;42155;53.096;23.226;2022-11-20T10:29:17;99740.78;;;-0.10;61.86
56241;BME280;42155;53.096;23.226;2022-11-20T10:31:37;99751.13;;;-0.07;61.16
56241;BME280;42155;53.096;23.226;2022-11-20T10:33:44;99743.38;;;-0.09;61.24
56241;BME280;42155;53.096;23.226;2022-11-20T10:36:13;99745.97;;;-0.09;61.54
56241;BME280;42155;53.096;23.226;2022-11-20T10:38:38;99744.94;;;-0.05;61.38
56241;BME280;42155;53.096;23.226;2022-11-20T10:40:45;99746.50;;;-0.01;61.81
56241;BME280;42155;53.096;23.226;2022-11-20T10:42:57;99741.09;;;0.04;62.04
56241;BME280;42155;53.096;23.226;2022-11-20T10:45:13;99744.31;;;0.11;62.06
56241;BME280;42155;53.096;23.226;2022-11-20T10:47:17;99707.63;;;-0.07;61.40
56241;BME280;42155;53.096;23.226;2022-11-20T10:49:19;99709.94;;;0.01;61.27
56241;BME280;42155;53.096;23.226;2022-11-20T10:51:46;99737.06;;;0.17;61.63
56241;BME280;42155;53.096;23.226;2022-11-20T11:01:05;99738.91;;;0.15;61.19
56241;BME280;42155;53.096;23.226;2022-11-20T11:03:23;99733.88;;;0.11;60.42
56241;BME280;42155;53.096;23.226;2022-11-20T11:07:37;99735.63;;;0.10;61.08
56241;BME280;42155;53.096;23.226;2022-11-20T11:09:44;99739.19;;;0.08;60.73
56241;BME280;42155;53.096;23.226;2022-11-20T11:11:46;99735.69;;;0.09;60.65